Time;durP1;ratioP1;P1;durP2;ratioP2;P2;SDS_P1;SDS_P2;PMS_P1;PMS_P2;Temp;Humidity;BMP_temperature;BMP_pressure;BME280_temperature;BME280_humidity;BME280_pressure;Samples;Min_cycle;Max_cycle;Signal;HPM_P1;HPM_P2
2021/08/16 00:01:56;;;;;;;28.15;15.02;;;;;;;;;;4952897;28;20043;-63
2021/08/16 00:04:42;;;;;;;21.55;12.70;;;;;;;;;;4957715;28;20047;-63
2021/08/16 00:07:27;;;;;;;23.60;13.35;;;;;;;;;;4957781;28;20055;-63
2021/08/16 00:10:15;;;;;;;23.67;12.50;;;;;;;;;;4957670;28;20401;-63
2021/08/16 00:13:00;;;;;;;25.42;12.98;;;;;;;;;;4945767;28;20127;-64
2021/08/16 00:15:45;;;;;;;20.20;10.40;;;;;;;;;;4947026;29;20189;-63
2021/08/16 00:18:31;;;;;;;24.38;10.57;;;;;;;;;;4957532;28;20418;-63
2021/08/16 00:21:16;;;;;;;20.98;9.77;;;;;;;;;;4957617;28;20689;-63
2021/08/16 00:24:03;;;;;;;21.58;9.45;;;;;;;;;;4952362;28;20097;-62
2021/08/16 00:26:49;;;;;;;18.10;8.43;;;;;;;;;;4957392;28;20197;-63
2021/08/16 00:29:34;;;;;;;23.55;9.57;;;;;;;;;;4957525;28;20051;-63
2021/08/16 00:32:20;;;;;;;21.02;9.13;;;;;;;;;;4940656;28;20054;-63
2021/08/16 00:35:05;;;;;;;17.83;8.57;;;;;;;;;;4938127;29;20070;-63
2021/08/16 00:37:50;;;;;;;20.98;7.82;;;;;;;;;;4938092;29;20044;-63
2021/08/16 00:40:36;;;;;;;17.08;7.45;;;;;;;;;;4937962;29;20406;-63
2021/08/16 00:43:21;;;;;;;25.50;7.95;;;;;;;;;;4918970;29;20099;-63
2021/08/16 00:46:07;;;;;;;21.58;7.95;;;;;;;;;;4919009;29;20183;-63
2021/08/16 00:48:54;;;;;;;19.13;6.68;;;;;;;;;;4918832;29;20535;-63
2021/08/16 00:51:39;;;;;;;23.08;6.20;;;;;;;;;;4927439;29;20051;-63
2021/08/16 00:54:24;;;;;;;15.43;5.80;;;;;;;;;;4956601;28;20134;-63
2021/08/16 00:57:10;;;;;;;25.95;6.70;;;;;;;;;;4956757;28;20051;-64
2021/08/16 00:59:55;;;;;;;25.55;7.03;;;;;;;;;;4955690;29;20058;-63
2021/08/16 01:02:41;;;;;;;17.05;6.32;;;;;;;;;;4946962;28;20058;-63
2021/08/16 01:05:27;;;;;;;21.73;6.55;;;;;;;;;;4956636;28;20517;-63
2021/08/16 01:08:12;;;;;;;20.73;5.65;;;;;;;;;;4956633;29;20055;-63
2021/08/16 01:10:57;;;;;;;25.98;6.88;;;;;;;;;;4956743;28;20110;-64
2021/08/16 01:13:43;;;;;;;19.08;5.85;;;;;;;;;;4953600;28;20054;-63
2021/08/16 01:16:29;;;;;;;22.05;6.18;;;;;;;;;;4956219;29;20059;-63
2021/08/16 01:19:14;;;;;;;26.83;7.32;;;;;;;;;;4956632;28;20050;-64
2021/08/16 01:22:00;;;;;;;29.70;7.63;;;;;;;;;;4956579;28;20126;-63
2021/08/16 01:24:45;;;;;;;26.73;7.63;;;;;;;;;;4956089;28;20047;-63
2021/08/16 01:27:30;;;;;;;21.58;6.20;;;;;;;;;;4956289;28;20486;-63
2021/08/16 01:30:16;;;;;;;24.02;7.13;;;;;;;;;;4956460;28;20153;-63
2021/08/16 01:33:02;;;;;;;25.10;6.30;;;;;;;;;;4953917;28;20047;-63
2021/08/16 01:35:47;;;;;;;24.77;7.35;;;;;;;;;;4956135;28;20051;-63
2021/08/16 01:38:33;;;;;;;30.65;7.78;;;;;;;;;;4956213;28;20047;-64
2021/08/16 01:41:19;;;;;;;26.05;7.88;;;;;;;;;;4956033;28;20055;-63
2021/08/16 01:44:04;;;;;;;22.40;6.32;;;;;;;;;;4954527;28;20602;-63
2021/08/16 01:46:50;;;;;;;24.52;6.72;;;;;;;;;;4956189;28;20055;-64
2021/08/16 01:49:36;;;;;;;23.05;6.97;;;;;;;;;;4955889;28;20103;-64
2021/08/16 01:52:21;;;;;;;22.02;7.22;;;;;;;;;;4954817;28;20047;-63
2021/08/16 01:55:07;;;;;;;19.20;6.15;;;;;;;;;;4954121;28;20105;-64
2021/08/16 01:57:52;;;;;;;27.73;7.13;;;;;;;;;;4955671;28;20039;-63
2021/08/16 02:00:38;;;;;;;23.15;7.13;;;;;;;;;;4955894;28;20142;-64
2021/08/16 02:03:23;;;;;;;34.47;7.82;;;;;;;;;;4955558;28;20110;-64
2021/08/16 02:06:09;;;;;;;23.58;6.90;;;;;;;;;;4955612;28;20047;-63
2021/08/16 02:08:54;;;;;;;27.17;7.10;;;;;;;;;;4955702;29;20058;-63
2021/08/16 02:11:40;;;;;;;28.60;7.55;;;;;;;;;;4955542;28;20066;-63
2021/08/16 02:14:25;;;;;;;21.92;6.85;;;;;;;;;;4953838;28;20110;-63
2021/08/16 02:17:10;;;;;;;25.90;8.48;;;;;;;;;;4955355;28;20070;-63
2021/08/16 02:19:56;;;;;;;23.70;7.00;;;;;;;;;;4955242;28;20062;-63
2021/08/16 02:22:41;;;;;;;22.45;7.05;;;;;;;;;;4954043;28;20051;-63
2021/08/16 02:25:27;;;;;;;27.98;6.75;;;;;;;;;;4952904;28;20058;-63
2021/08/16 02:28:16;;;;;;;27.73;7.97;;;;;;;;;;4955337;28;20062;-63
2021/08/16 02:31:01;;;;;;;28.58;7.47;;;;;;;;;;4955168;29;20489;-63
2021/08/16 02:33:47;;;;;;;30.15;8.05;;;;;;;;;;4954919;28;20066;-63
2021/08/16 02:36:32;;;;;;;24.95;8.32;;;;;;;;;;4953649;29;20051;-63
2021/08/16 02:39:18;;;;;;;21.98;7.78;;;;;;;;;;4954988;29;20055;-64
2021/08/16 02:42:03;;;;;;;19.67;7.60;;;;;;;;;;4954993;28;20463;-63
2021/08/16 02:44:49;;;;;;;25.63;8.15;;;;;;;;;;4954728;28;20118;-63
2021/08/16 02:47:34;;;;;;;25.10;7.80;;;;;;;;;;4954884;28;20057;-64
2021/08/16 02:50:20;;;;;;;27.15;7.82;;;;;;;;;;4954815;28;20481;-64
2021/08/16 02:53:05;;;;;;;32.75;8.45;;;;;;;;;;4954778;28;20449;-63
2021/08/16 02:55:51;;;;;;;28.25;7.82;;;;;;;;;;4953193;28;20117;-64
2021/08/16 02:58:36;;;;;;;26.20;8.00;;;;;;;;;;4943601;28;20051;-64
2021/08/16 03:01:21;;;;;;;30.58;9.25;;;;;;;;;;4935495;29;20052;-64
2021/08/16 03:04:07;;;;;;;35.45;8.85;;;;;;;;;;4935254;29;20054;-64
2021/08/16 03:06:55;;;;;;;25.48;8.32;;;;;;;;;;4943800;29;20047;-64
2021/08/16 03:09:41;;;;;;;28.50;8.93;;;;;;;;;;4954683;28;20055;-63
2021/08/16 03:12:26;;;;;;;29.10;8.82;;;;;;;;;;4954453;28;20110;-63
2021/08/16 03:15:12;;;;;;;35.28;9.25;;;;;;;;;;4954080;29;20047;-63
2021/08/16 03:18:00;;;;;;;30.45;8.57;;;;;;;;;;4952050;29;20095;-63
2021/08/16 03:20:45;;;;;;;35.08;9.80;;;;;;;;;;4935150;29;20051;-63
2021/08/16 03:23:31;;;;;;;30.67;8.90;;;;;;;;;;4934579;29;20051;-64
2021/08/16 03:26:16;;;;;;;21.83;9.05;;;;;;;;;;4935273;29;20059;-63
2021/08/16 03:29:02;;;;;;;32.58;8.50;;;;;;;;;;4916055;29;20134;-63
2021/08/16 03:31:47;;;;;;;30.52;8.40;;;;;;;;;;4916159;29;20131;-63
2021/08/16 03:34:33;;;;;;;27.38;7.43;;;;;;;;;;4915981;29;20559;-63
2021/08/16 03:37:18;;;;;;;34.60;9.48;;;;;;;;;;4923093;29;20490;-63
2021/08/16 03:40:04;;;;;;;32.35;9.52;;;;;;;;;;4954016;28;20101;-63
2021/08/16 03:42:50;;;;;;;31.15;8.98;;;;;;;;;;4953181;29;20062;-63
2021/08/16 03:45:35;;;;;;;32.58;9.95;;;;;;;;;;4953879;28;20039;-63
2021/08/16 03:48:21;;;;;;;29.83;8.85;;;;;;;;;;4952558;28;20047;-63
2021/08/16 03:51:07;;;;;;;26.02;9.65;;;;;;;;;;4952882;29;20512;-64
2021/08/16 03:53:52;;;;;;;29.95;9.52;;;;;;;;;;4953721;28;20087;-63
2021/08/16 03:56:37;;;;;;;26.60;9.20;;;;;;;;;;4953935;29;20074;-63
2021/08/16 03:59:23;;;;;;;33.78;9.35;;;;;;;;;;4952483;28;20052;-63
2021/08/16 04:02:09;;;;;;;32.47;9.75;;;;;;;;;;4953858;28;20509;-63
2021/08/16 04:04:54;;;;;;;29.40;8.75;;;;;;;;;;4953773;29;20163;-63
2021/08/16 04:07:39;;;;;;;28.40;8.85;;;;;;;;;;4952838;29;20130;-63
2021/08/16 04:10:25;;;;;;;30.52;9.13;;;;;;;;;;4953684;28;20058;-63
2021/08/16 04:13:11;;;;;;;34.05;9.43;;;;;;;;;;4953685;28;20079;-63
2021/08/16 04:15:57;;;;;;;31.17;10.00;;;;;;;;;;4953761;29;20402;-63
2021/08/16 04:18:42;;;;;;;29.60;8.95;;;;;;;;;;4950490;28;20052;-64
2021/08/16 04:21:28;;;;;;;30.48;9.48;;;;;;;;;;4953702;28;20046;-63
2021/08/16 04:24:13;;;;;;;33.88;9.43;;;;;;;;;;5000789;23;20051;-64
2021/08/16 04:26:58;;;;;;;28.75;10.85;;;;;;;;;;4953879;28;20065;-64
2021/08/16 04:29:44;;;;;;;27.20;9.20;;;;;;;;;;4971784;28;20061;-64
2021/08/16 04:32:29;;;;;;;35.00;10.05;;;;;;;;;;4992128;28;20073;-64
2021/08/16 04:35:15;;;;;;;32.22;9.48;;;;;;;;;;4992064;28;20050;-64
2021/08/16 04:38:00;;;;;;;40.70;10.35;;;;;;;;;;4991949;28;20046;-64
2021/08/16 04:40:46;;;;;;;35.05;10.70;;;;;;;;;;4990445;28;20493;-64
2021/08/16 04:43:32;;;;;;;26.42;9.13;;;;;;;;;;4992080;28;20125;-64
2021/08/16 04:46:17;;;;;;;34.22;10.15;;;;;;;;;;4992207;28;20053;-64
2021/08/16 04:49:04;;;;;;;29.98;9.25;;;;;;;;;;4994049;28;20054;-64
2021/08/16 04:51:49;;;;;;;28.52;9.68;;;;;;;;;;4956101;29;20055;-64
2021/08/16 04:54:37;;;;;;;30.20;9.82;;;;;;;;;;4956594;28;20054;-64
2021/08/16 04:57:35;;;;;;;27.30;10.07;;;;;;;;;;4956998;28;20446;-64
2021/08/16 05:00:25;;;;;;;31.65;10.55;;;;;;;;;;4962934;28;20497;-64
2021/08/16 05:03:10;;;;;;;24.60;8.02;;;;;;;;;;4983280;28;20413;-64
2021/08/16 05:05:56;;;;;;;33.53;9.63;;;;;;;;;;4973651;28;20421;-64
2021/08/16 05:08:41;;;;;;;24.00;10.05;;;;;;;;;;4974616;28;20109;-64
2021/08/16 05:11:28;;;;;;;27.67;9.52;;;;;;;;;;4986348;28;20050;-64
2021/08/16 05:14:13;;;;;;;26.85;10.50;;;;;;;;;;4995354;28;20057;-64
2021/08/16 05:16:58;;;;;;;28.90;10.00;;;;;;;;;;4995389;28;20042;-64
2021/08/16 05:19:44;;;;;;;26.00;10.70;;;;;;;;;;4995368;28;20509;-64
2021/08/16 05:22:31;;;;;;;24.75;8.60;;;;;;;;;;4992627;28;20046;-64
2021/08/16 05:25:17;;;;;;;23.92;9.00;;;;;;;;;;4993996;28;20563;-64
2021/08/16 05:28:02;;;;;;;23.30;8.43;;;;;;;;;;4991396;28;20423;-64
2021/08/16 05:30:48;;;;;;;23.90;8.70;;;;;;;;;;4994105;28;20061;-64
2021/08/16 05:33:33;;;;;;;18.65;8.07;;;;;;;;;;4975174;28;20129;-64
2021/08/16 05:36:19;;;;;;;23.33;7.68;;;;;;;;;;4975506;28;20051;-64
2021/08/16 05:39:04;;;;;;;27.67;9.15;;;;;;;;;;4975289;28;20043;-64
2021/08/16 05:41:50;;;;;;;24.92;9.73;;;;;;;;;;4978752;28;20038;-64
2021/08/16 05:44:35;;;;;;;28.50;10.70;;;;;;;;;;4994546;28;20416;-64
2021/08/16 05:47:21;;;;;;;27.23;9.18;;;;;;;;;;4994635;28;20389;-64
2021/08/16 05:50:09;;;;;;;27.67;9.68;;;;;;;;;;4994860;28;20061;-64
2021/08/16 05:52:55;;;;;;;22.67;8.38;;;;;;;;;;4992937;28;20489;-64
2021/08/16 05:55:40;;;;;;;22.15;8.57;;;;;;;;;;4994288;28;20050;-64
2021/08/16 05:58:25;;;;;;;19.88;7.93;;;;;;;;;;4994526;28;20488;-64
2021/08/16 06:01:11;;;;;;;13.70;6.80;;;;;;;;;;4993605;28;20047;-64
2021/08/16 06:03:56;;;;;;;17.02;7.55;;;;;;;;;;4992583;28;20054;-63
2021/08/16 06:06:41;;;;;;;14.75;6.95;;;;;;;;;;4994383;28;20140;-64
2021/08/16 06:09:27;;;;;;;16.38;7.65;;;;;;;;;;4994315;28;20080;-64
2021/08/16 06:12:12;;;;;;;14.82;6.55;;;;;;;;;;4994207;28;20057;-64
2021/08/16 06:14:58;;;;;;;11.50;6.55;;;;;;;;;;4991700;28;20411;-64
2021/08/16 06:17:43;;;;;;;10.15;6.32;;;;;;;;;;4974777;28;20151;-64
2021/08/16 06:20:28;;;;;;;7.97;5.32;;;;;;;;;;4974657;28;20506;-64
2021/08/16 06:23:14;;;;;;;15.38;6.25;;;;;;;;;;4977709;28;20085;-64
2021/08/16 06:25:59;;;;;;;9.43;5.18;;;;;;;;;;4992932;28;20416;-64
2021/08/16 06:28:44;;;;;;;12.68;5.85;;;;;;;;;;4993977;28;20053;-64
2021/08/16 06:31:30;;;;;;;9.13;5.57;;;;;;;;;;4994010;28;20149;-64
2021/08/16 06:34:15;;;;;;;14.63;6.13;;;;;;;;;;4991761;28;20586;-65
2021/08/16 06:37:01;;;;;;;13.02;7.22;;;;;;;;;;4993740;28;20050;-64
2021/08/16 06:39:46;;;;;;;17.63;7.85;;;;;;;;;;4993853;28;20054;-65
2021/08/16 06:42:32;;;;;;;14.85;7.05;;;;;;;;;;4993635;28;20042;-65
2021/08/16 06:45:17;;;;;;;11.25;6.78;;;;;;;;;;4984743;28;20132;-64
2021/08/16 06:48:02;;;;;;;11.43;6.35;;;;;;;;;;4992776;28;20050;-64
2021/08/16 06:50:47;;;;;;;13.60;6.80;;;;;;;;;;4993547;28;20523;-64
2021/08/16 06:53:33;;;;;;;10.73;5.63;;;;;;;;;;4992138;28;20080;-64
2021/08/16 06:56:18;;;;;;;11.25;6.10;;;;;;;;;;4992691;28;20077;-65
2021/08/16 06:59:03;;;;;;;9.45;5.55;;;;;;;;;;4993423;28;20119;-64
2021/08/16 07:01:49;;;;;;;11.57;5.28;;;;;;;;;;4987373;28;20489;-64
2021/08/16 07:04:35;;;;;;;7.10;4.20;;;;;;;;;;4993146;28;20053;-64
2021/08/16 07:07:21;;;;;;;4.45;3.40;;;;;;;;;;4993290;28;20053;-64
2021/08/16 07:10:07;;;;;;;4.38;2.58;;;;;;;;;;4993503;28;20072;-64
2021/08/16 07:12:52;;;;;;;5.18;3.08;;;;;;;;;;4991339;28;20056;-64
2021/08/16 07:15:38;;;;;;;5.20;2.38;;;;;;;;;;4992922;28;20066;-64
2021/08/16 07:18:23;;;;;;;6.68;2.25;;;;;;;;;;4993180;28;20042;-64
2021/08/16 07:21:08;;;;;;;4.97;1.95;;;;;;;;;;4991450;28;20050;-64
2021/08/16 07:23:55;;;;;;;5.68;1.83;;;;;;;;;;4992637;28;20049;-64
2021/08/16 07:26:40;;;;;;;3.92;1.85;;;;;;;;;;4993236;28;20511;-64
2021/08/16 07:29:26;;;;;;;5.00;1.67;;;;;;;;;;4992884;28;20046;-65
2021/08/16 07:32:11;;;;;;;9.20;2.20;;;;;;;;;;4990500;28;20519;-64
2021/08/16 07:34:56;;;;;;;6.90;2.30;;;;;;;;;;4992784;28;20046;-64
2021/08/16 07:37:41;;;;;;;10.32;2.22;;;;;;;;;;4992754;28;20065;-65
2021/08/16 07:40:27;;;;;;;4.45;1.70;;;;;;;;;;4973179;28;20065;-64
2021/08/16 07:43:13;;;;;;;6.53;2.03;;;;;;;;;;4983048;28;20051;-64
2021/08/16 07:45:58;;;;;;;3.53;1.60;;;;;;;;;;4980875;28;20053;-64
2021/08/16 07:48:43;;;;;;;4.07;1.50;;;;;;;;;;4991748;28;20073;-65
2021/08/16 07:51:28;;;;;;;6.00;1.92;;;;;;;;;;4987663;28;20058;-64
2021/08/16 07:54:14;;;;;;;4.47;1.73;;;;;;;;;;4991178;28;20046;-65
2021/08/16 07:56:59;;;;;;;4.50;1.52;;;;;;;;;;4991922;28;20515;-64
2021/08/16 07:59:45;;;;;;;5.78;2.10;;;;;;;;;;4992297;28;20061;-64
2021/08/16 08:02:40;;;;;;;5.78;1.75;;;;;;;;;;4989320;28;20046;-64
2021/08/16 08:05:25;;;;;;;3.72;1.13;;;;;;;;;;4991728;28;20125;-65
2021/08/16 08:08:10;;;;;;;4.55;1.23;;;;;;;;;;4992218;28;20056;-64
2021/08/16 08:10:56;;;;;;;2.55;1.10;;;;;;;;;;4990393;28;20173;-65
2021/08/16 08:13:41;;;;;;;5.38;1.90;;;;;;;;;;4991524;28;20042;-64
2021/08/16 08:16:26;;;;;;;4.30;1.30;;;;;;;;;;4992080;28;20117;-65
2021/08/16 08:19:12;;;;;;;2.60;1.10;;;;;;;;;;4992159;28;20513;-65
2021/08/16 08:21:57;;;;;;;4.18;1.13;;;;;;;;;;4990706;28;20057;-65
2021/08/16 08:24:43;;;;;;;3.22;1.23;;;;;;;;;;4994652;28;20100;-65
2021/08/16 08:27:28;;;;;;;4.05;1.42;;;;;;;;;;4995954;28;20522;-65
2021/08/16 08:30:14;;;;;;;5.05;2.00;;;;;;;;;;4995995;28;20054;-65
2021/08/16 08:32:59;;;;;;;4.10;1.75;;;;;;;;;;4993980;28;20049;-65
2021/08/16 08:35:45;;;;;;;6.15;1.50;;;;;;;;;;4995447;28;20042;-65
2021/08/16 08:38:31;;;;;;;5.35;2.10;;;;;;;;;;4995419;28;20061;-65
2021/08/16 08:41:17;;;;;;;5.95;2.50;;;;;;;;;;4995547;28;20100;-65
2021/08/16 08:44:05;;;;;;;3.78;1.70;;;;;;;;;;4992216;28;20050;-65
2021/08/16 08:46:50;;;;;;;6.53;2.10;;;;;;;;;;4990278;28;20049;-64
2021/08/16 08:49:35;;;;;;;5.95;2.33;;;;;;;;;;4994883;28;20056;-65
2021/08/16 08:52:21;;;;;;;6.53;2.20;;;;;;;;;;4991964;28;20076;-65
2021/08/16 08:55:07;;;;;;;6.25;2.67;;;;;;;;;;4994061;28;20046;-65
2021/08/16 08:57:52;;;;;;;5.18;2.33;;;;;;;;;;4995302;28;20130;-65
2021/08/16 09:00:38;;;;;;;6.05;1.80;;;;;;;;;;4993249;28;20050;-65
2021/08/16 09:03:23;;;;;;;6.60;1.95;;;;;;;;;;4995142;28;20058;-65
2021/08/16 09:06:08;;;;;;;7.88;2.30;;;;;;;;;;4995239;28;20058;-64
2021/08/16 09:08:54;;;;;;;5.95;1.85;;;;;;;;;;4995167;28;20250;-65
2021/08/16 09:11:42;;;;;;;5.75;2.10;;;;;;;;;;4992930;28;20158;-65
2021/08/16 09:14:27;;;;;;;4.65;1.75;;;;;;;;;;4994871;28;20324;-65
2021/08/16 09:17:13;;;;;;;3.40;1.80;;;;;;;;;;4994907;28;20051;-65
2021/08/16 09:19:58;;;;;;;5.82;2.92;;;;;;;;;;4972983;28;20150;-65
2021/08/16 09:22:43;;;;;;;8.68;2.72;;;;;;;;;;4988410;28;20046;-65
2021/08/16 09:25:32;;;;;;;7.18;2.70;;;;;;;;;;4994325;28;20120;-65
2021/08/16 09:28:25;;;;;;;5.53;2.28;;;;;;;;;;4994317;28;20053;-65
2021/08/16 09:31:11;;;;;;;9.00;2.22;;;;;;;;;;4994517;28;20042;-65
2021/08/16 09:34:01;;;;;;;5.88;2.30;;;;;;;;;;4974932;28;20050;-65
2021/08/16 09:36:46;;;;;;;7.60;2.67;;;;;;;;;;4974965;28;20051;-65
2021/08/16 09:39:36;;;;;;;5.82;1.98;;;;;;;;;;4974979;28;20089;-65
2021/08/16 09:42:21;;;;;;;7.32;2.58;;;;;;;;;;4976974;28;20126;-65
2021/08/16 09:45:06;;;;;;;10.00;2.83;;;;;;;;;;4972612;28;20105;-65
2021/08/16 09:47:56;;;;;;;6.88;2.25;;;;;;;;;;4973055;28;20050;-65
2021/08/16 09:50:42;;;;;;;6.13;2.00;;;;;;;;;;4972973;28;20129;-65
2021/08/16 09:53:28;;;;;;;7.03;2.55;;;;;;;;;;4974810;28;20054;-65
2021/08/16 09:56:14;;;;;;;5.40;2.30;;;;;;;;;;4974397;28;20039;-65
2021/08/16 09:58:59;;;;;;;6.03;2.45;;;;;;;;;;4973128;28;20485;-65
2021/08/16 10:01:44;;;;;;;5.95;2.28;;;;;;;;;;4985217;28;20054;-65
2021/08/16 10:04:30;;;;;;;10.05;2.65;;;;;;;;;;4992602;28;20129;-65
2021/08/16 10:07:15;;;;;;;7.45;2.80;;;;;;;;;;4994259;28;20738;-65
2021/08/16 10:10:01;;;;;;;7.57;2.20;;;;;;;;;;4978552;28;20050;-65
2021/08/16 10:12:46;;;;;;;5.68;2.42;;;;;;;;;;4971521;28;20109;-65
2021/08/16 10:15:32;;;;;;;7.28;2.10;;;;;;;;;;4972141;28;20497;-65
2021/08/16 10:18:18;;;;;;;4.40;1.85;;;;;;;;;;4972799;28;20074;-65
2021/08/16 10:21:03;;;;;;;6.82;1.65;;;;;;;;;;4970126;28;20054;-65
2021/08/16 10:23:49;;;;;;;6.05;1.63;;;;;;;;;;4952775;28;20047;-65
2021/08/16 10:26:36;;;;;;;5.20;1.73;;;;;;;;;;4965999;28;20051;-64
2021/08/16 10:29:22;;;;;;;6.65;1.90;;;;;;;;;;4973570;28;20202;-64
2021/08/16 10:32:28;;;;;;;4.72;1.35;;;;;;;;;;4972940;28;20592;-72
2021/08/16 10:35:13;;;;;;;3.92;1.02;;;;;;;;;;4973003;28;20047;-66
2021/08/16 10:38:06;;;;;;;3.65;1.15;;;;;;;;;;4971817;28;20053;-65
2021/08/16 10:40:51;;;;;;;4.60;1.00;;;;;;;;;;4972030;28;20050;-65
2021/08/16 10:43:36;;;;;;;6.25;1.90;;;;;;;;;;4969659;28;20050;-65
2021/08/16 10:46:22;;;;;;;4.13;1.80;;;;;;;;;;4970809;28;20035;-66
2021/08/16 10:49:10;;;;;;;10.35;2.92;;;;;;;;;;4972020;28;20055;-66
2021/08/16 10:51:56;;;;;;;9.07;2.13;;;;;;;;;;4973055;28;20101;-66
2021/08/16 10:54:41;;;;;;;5.43;2.45;;;;;;;;;;4968485;28;20050;-65
2021/08/16 10:57:27;;;;;;;8.35;2.88;;;;;;;;;;4972126;28;20505;-66
2021/08/16 11:00:13;;;;;;;5.75;2.30;;;;;;;;;;4973632;28;20043;-65
2021/08/16 11:02:58;;;;;;;9.82;3.42;;;;;;;;;;4973564;28;20098;-65
2021/08/16 11:05:43;;;;;;;9.60;2.33;;;;;;;;;;4972794;28;20054;-66
2021/08/16 11:08:32;;;;;;;7.82;2.53;;;;;;;;;;4970078;28;20054;-65
2021/08/16 11:11:17;;;;;;;8.15;2.35;;;;;;;;;;4970993;28;20061;-65
2021/08/16 11:14:06;;;;;;;8.75;3.03;;;;;;;;;;4970916;28;20170;-65
2021/08/16 11:16:52;;;;;;;8.13;2.58;;;;;;;;;;4971525;28;20042;-66
2021/08/16 11:19:44;;;;;;;8.77;2.97;;;;;;;;;;4971486;28;20046;-66
2021/08/16 11:22:30;;;;;;;7.05;2.80;;;;;;;;;;4969792;28;20133;-63
2021/08/16 11:25:15;;;;;;;12.07;2.95;;;;;;;;;;4970555;28;20050;-64
2021/08/16 11:28:01;;;;;;;16.42;3.70;;;;;;;;;;4972740;28;20075;-64
2021/08/16 11:30:47;;;;;;;5.75;2.38;;;;;;;;;;4972486;28;20182;-64
2021/08/16 11:33:32;;;;;;;11.15;3.30;;;;;;;;;;4969279;28;20042;-64
2021/08/16 11:36:18;;;;;;;7.47;2.60;;;;;;;;;;4971043;28;20050;-64
2021/08/16 11:39:04;;;;;;;8.45;2.28;;;;;;;;;;4990874;28;20047;-64
2021/08/16 11:41:49;;;;;;;7.45;2.72;;;;;;;;;;4971619;28;20053;-64
2021/08/16 11:44:35;;;;;;;11.23;2.75;;;;;;;;;;4970920;28;20054;-64
2021/08/16 11:47:20;;;;;;;9.48;3.05;;;;;;;;;;4988339;28;20056;-64
2021/08/16 11:50:09;;;;;;;8.77;2.47;;;;;;;;;;4987969;28;20123;-64
2021/08/16 11:52:54;;;;;;;10.10;2.65;;;;;;;;;;4953407;28;20073;-64
2021/08/16 11:55:40;;;;;;;9.35;2.50;;;;;;;;;;4965412;28;20150;-64
2021/08/16 11:58:34;;;;;;;11.48;2.20;;;;;;;;;;4980186;28;20055;-64
2021/08/16 12:01:20;;;;;;;9.55;2.65;;;;;;;;;;4976920;28;20057;-64
2021/08/16 12:04:05;;;;;;;9.70;2.30;;;;;;;;;;4975825;28;20047;-64
2021/08/16 12:06:51;;;;;;;9.45;2.65;;;;;;;;;;4975818;28;20508;-64
2021/08/16 12:09:36;;;;;;;13.98;3.63;;;;;;;;;;4976189;28;20042;-64
2021/08/16 12:12:22;;;;;;;13.98;2.58;;;;;;;;;;4967763;28;20039;-64
2021/08/16 12:15:09;;;;;;;11.30;2.95;;;;;;;;;;4975687;28;20069;-64
2021/08/16 12:18:15;;;;;;;7.90;2.50;;;;;;;;;;4975291;28;20049;-64
2021/08/16 12:21:00;;;;;;;7.85;2.10;;;;;;;;;;4973284;28;20139;-64
2021/08/16 12:23:52;;;;;;;8.82;1.85;;;;;;;;;;4971913;28;20185;-64
2021/08/16 12:26:38;;;;;;;7.63;2.22;;;;;;;;;;4991703;28;20043;-64
2021/08/16 12:29:23;;;;;;;14.02;2.28;;;;;;;;;;4995562;28;20051;-64
2021/08/16 12:32:16;;;;;;;9.23;2.63;;;;;;;;;;4995775;28;20058;-64
2021/08/16 12:35:05;;;;;;;;;;;;;;;;;;4996268;28;20416;-64
2021/08/16 12:37:52;;;;;;;9.43;3.00;;;;;;;;;;4995677;28;19944;-64
2021/08/16 12:40:37;;;;;;;9.68;2.92;;;;;;;;;;4994409;28;20485;-64
2021/08/16 12:43:23;;;;;;;8.90;2.42;;;;;;;;;;4995355;28;20038;-63
2021/08/16 12:46:09;;;;;;;7.00;2.83;;;;;;;;;;4995394;28;20121;-64
2021/08/16 12:48:56;;;;;;;12.32;3.28;;;;;;;;;;4995650;28;20042;-64
2021/08/16 12:51:41;;;;;;;11.80;3.58;;;;;;;;;;4995510;28;20057;-64
2021/08/16 12:54:26;;;;;;;8.75;2.33;;;;;;;;;;5004682;28;20516;-63
2021/08/16 12:57:11;;;;;;;6.80;2.63;;;;;;;;;;4995680;28;20053;-64
2021/08/16 12:59:57;;;;;;;5.43;1.85;;;;;;;;;;4995486;28;20132;-64
2021/08/16 13:02:43;;;;;;;5.25;2.33;;;;;;;;;;4995141;28;20571;-64
2021/08/16 13:05:28;;;;;;;7.57;1.92;;;;;;;;;;4994867;28;20050;-64
2021/08/16 13:08:13;;;;;;;7.18;2.25;;;;;;;;;;4995178;28;20185;-64
2021/08/16 13:10:58;;;;;;;7.57;2.10;;;;;;;;;;4993260;28;20121;-64
2021/08/16 13:13:44;;;;;;;7.88;2.33;;;;;;;;;;4994778;28;20053;-64
2021/08/16 13:16:29;;;;;;;8.27;2.53;;;;;;;;;;4994106;28;20485;-64
2021/08/16 13:19:17;;;;;;;8.05;2.05;;;;;;;;;;4995108;28;20046;-63
2021/08/16 13:22:02;;;;;;;8.93;2.00;;;;;;;;;;4994963;28;20061;-64
2021/08/16 13:24:47;;;;;;;6.30;1.67;;;;;;;;;;4992784;28;20050;-64
2021/08/16 13:27:33;;;;;;;13.00;2.35;;;;;;;;;;4994778;28;20044;-64
2021/08/16 13:30:18;;;;;;;9.18;1.55;;;;;;;;;;4995131;28;20050;-64
2021/08/16 13:33:04;;;;;;;9.13;2.05;;;;;;;;;;4983986;28;20055;-63
2021/08/16 13:35:49;;;;;;;6.68;1.95;;;;;;;;;;4975188;28;20528;-64
2021/08/16 13:38:34;;;;;;;26.02;3.33;;;;;;;;;;4978162;28;20112;-64
2021/08/16 13:41:20;;;;;;;21.88;2.63;;;;;;;;;;4994550;28;20524;-64
2021/08/16 13:44:05;;;;;;;7.38;1.63;;;;;;;;;;4994110;28;20056;-64
2021/08/16 13:46:51;;;;;;;8.48;2.00;;;;;;;;;;4994356;28;20054;-64
2021/08/16 13:49:36;;;;;;;5.57;1.40;;;;;;;;;;4994616;28;20058;-64
2021/08/16 13:52:22;;;;;;;6.20;2.00;;;;;;;;;;4994246;28;20061;-63
2021/08/16 13:55:07;;;;;;;8.18;1.60;;;;;;;;;;4981064;28;20078;-63
2021/08/16 13:57:53;;;;;;;4.03;1.40;;;;;;;;;;4974960;28;20061;-64
2021/08/16 14:00:38;;;;;;;9.57;1.48;;;;;;;;;;4974172;28;20181;-64
2021/08/16 14:03:24;;;;;;;5.63;1.15;;;;;;;;;;4974411;28;20046;-63
2021/08/16 14:06:09;;;;;;;6.22;1.50;;;;;;;;;;4974348;28;20178;-63
2021/08/16 14:08:54;;;;;;;6.18;1.40;;;;;;;;;;4972246;28;20050;-64
2021/08/16 14:11:40;;;;;;;6.03;1.52;;;;;;;;;;4974141;28;20816;-64
2021/08/16 14:14:25;;;;;;;8.15;1.70;;;;;;;;;;4983944;28;20053;-64
2021/08/16 14:17:12;;;;;;;7.18;2.10;;;;;;;;;;4992559;28;20049;-64
2021/08/16 14:19:57;;;;;;;8.30;1.60;;;;;;;;;;4993735;28;20050;-64
2021/08/16 14:22:42;;;;;;;5.45;1.50;;;;;;;;;;4992680;28;20049;-63
2021/08/16 14:25:28;;;;;;;6.45;1.75;;;;;;;;;;4988740;28;20413;-63
2021/08/16 14:28:13;;;;;;;4.90;1.25;;;;;;;;;;4992292;28;20065;-64
2021/08/16 14:30:59;;;;;;;6.38;1.30;;;;;;;;;;4992542;28;20097;-64
2021/08/16 14:33:44;;;;;;;8.88;1.13;;;;;;;;;;4991851;28;20448;-63
2021/08/16 14:36:30;;;;;;;7.03;1.70;;;;;;;;;;4992692;28;20047;-63
2021/08/16 14:39:15;;;;;;;6.65;1.08;;;;;;;;;;4987850;28;20049;-64
2021/08/16 14:42:01;;;;;;;5.07;1.30;;;;;;;;;;4992659;28;20184;-63
2021/08/16 14:44:46;;;;;;;4.40;1.23;;;;;;;;;;4991464;28;20130;-63
2021/08/16 14:47:31;;;;;;;2.83;1.00;;;;;;;;;;4989812;28;20049;-64
2021/08/16 14:50:17;;;;;;;9.00;1.73;;;;;;;;;;4992218;28;20660;-63
2021/08/16 14:53:03;;;;;;;4.80;0.95;;;;;;;;;;4991839;28;20056;-62
2021/08/16 14:55:48;;;;;;;5.70;1.13;;;;;;;;;;4992110;28;20049;-63
2021/08/16 14:58:33;;;;;;;3.20;0.80;;;;;;;;;;4991960;28;20058;-63
2021/08/16 15:01:19;;;;;;;4.25;1.20;;;;;;;;;;4991528;28;20594;-63
2021/08/16 15:04:04;;;;;;;6.22;1.30;;;;;;;;;;4990913;28;20049;-63
2021/08/16 15:06:49;;;;;;;4.97;1.10;;;;;;;;;;4990148;28;20046;-63
2021/08/16 15:09:35;;;;;;;4.78;1.10;;;;;;;;;;4981033;28;20054;-63
2021/08/16 15:12:20;;;;;;;4.78;1.20;;;;;;;;;;4971948;28;20170;-64
2021/08/16 15:15:06;;;;;;;3.97;1.08;;;;;;;;;;4970605;28;20123;-63
2021/08/16 15:17:51;;;;;;;5.90;1.25;;;;;;;;;;4971403;28;20057;-63
2021/08/16 15:20:37;;;;;;;7.32;1.90;;;;;;;;;;4969786;28;20049;-63
2021/08/16 15:23:22;;;;;;;5.25;1.50;;;;;;;;;;4934030;28;1060373;-63
2021/08/16 15:26:09;;;;;;;6.38;1.48;;;;;;;;;;4971443;28;20046;-63
2021/08/16 15:28:55;;;;;;;3.10;1.20;;;;;;;;;;4972386;28;20050;-63
2021/08/16 15:31:40;;;;;;;7.13;1.40;;;;;;;;;;4969894;28;20190;-63
2021/08/16 15:34:26;;;;;;;7.35;1.25;;;;;;;;;;4969232;28;20039;-63
2021/08/16 15:37:11;;;;;;;7.53;1.63;;;;;;;;;;4970571;28;20057;-63
2021/08/16 15:39:56;;;;;;;6.80;1.42;;;;;;;;;;4971267;28;20405;-62
2021/08/16 15:42:46;;;;;;;9.43;1.80;;;;;;;;;;4971523;28;20039;-63
2021/08/16 15:45:32;;;;;;;5.85;1.17;;;;;;;;;;4971978;28;20046;-63
2021/08/16 15:48:17;;;;;;;4.30;1.13;;;;;;;;;;4970988;28;20058;-62
2021/08/16 15:51:03;;;;;;;6.80;1.67;;;;;;;;;;4969852;28;20408;-64
2021/08/16 15:53:48;;;;;;;6.97;1.52;;;;;;;;;;4971124;28;20043;-62
2021/08/16 15:56:35;;;;;;;5.60;1.02;;;;;;;;;;4970137;28;20050;-63
2021/08/16 15:59:20;;;;;;;6.95;1.27;;;;;;;;;;4971938;28;20042;-63
2021/08/16 16:02:05;;;;;;;6.43;1.33;;;;;;;;;;4972538;28;20061;-63
2021/08/16 16:04:51;;;;;;;4.53;1.23;;;;;;;;;;4971955;28;20623;-63
2021/08/16 16:07:36;;;;;;;6.05;1.08;;;;;;;;;;4972297;28;20053;-63
2021/08/16 16:10:21;;;;;;;5.47;1.33;;;;;;;;;;4970793;28;20058;-66
2021/08/16 16:13:07;;;;;;;7.85;1.25;;;;;;;;;;4971018;28;20140;-63
2021/08/16 16:15:52;;;;;;;11.02;2.03;;;;;;;;;;4969539;28;20054;-63
2021/08/16 16:18:40;;;;;;;5.20;1.08;;;;;;;;;;4970342;28;20058;-63
2021/08/16 16:21:25;;;;;;;7.28;1.40;;;;;;;;;;4971217;28;20061;-64
2021/08/16 16:24:11;;;;;;;6.68;1.08;;;;;;;;;;4980155;28;20074;-62
2021/08/16 16:26:56;;;;;;;4.18;1.10;;;;;;;;;;4989814;28;20120;-63